createdAt,value
2019-05-12T00:01:32.239Z,99.90
2019-05-12T00:04:02.871Z,99.90
2019-05-12T00:06:33.530Z,99.90
2019-05-12T00:09:08.369Z,99.90
2019-05-12T00:11:39.171Z,99.90
2019-05-12T00:14:09.617Z,99.90
2019-05-12T00:16:40.187Z,99.90
2019-05-12T00:19:10.719Z,99.90
2019-05-12T00:21:41.368Z,99.90
2019-05-12T00:24:11.927Z,99.90
2019-05-12T00:26:43.365Z,99.90
2019-05-12T00:29:13.927Z,99.90
2019-05-12T00:31:44.532Z,99.90
2019-05-12T00:34:15.001Z,99.90
2019-05-12T00:36:48.536Z,99.90
2019-05-12T00:39:19.275Z,99.90
2019-05-12T00:41:49.765Z,99.90
2019-05-12T00:44:20.349Z,99.90
2019-05-12T00:46:51.185Z,99.90
2019-05-12T00:49:21.608Z,99.90
2019-05-12T00:51:52.087Z,99.90
2019-05-12T00:54:22.763Z,99.90
2019-05-12T00:56:54.390Z,99.90
2019-05-12T00:59:24.923Z,99.90
2019-05-12T01:01:55.479Z,99.90
2019-05-12T01:04:26.029Z,99.90
2019-05-12T01:06:58.234Z,99.90
2019-05-12T01:09:28.811Z,99.90
2019-05-12T01:11:59.674Z,99.90
2019-05-12T01:14:30.176Z,99.90
2019-05-12T01:17:00.715Z,99.90
2019-05-12T01:19:32.128Z,99.90
2019-05-12T01:22:02.757Z,99.90
2019-05-12T01:24:33.235Z,99.90
2019-05-12T01:27:04.015Z,99.90
2019-05-12T01:29:34.480Z,99.90
2019-05-12T01:32:22.928Z,99.90
2019-05-12T01:34:53.522Z,99.90
2019-05-12T01:37:24.183Z,99.90
2019-05-12T01:39:59.701Z,99.90
2019-05-12T01:42:28.788Z,99.90
2019-05-12T01:44:59.461Z,99.90
2019-05-12T01:47:30.419Z,99.90
2019-05-12T01:50:01.049Z,99.90
2019-05-12T01:52:33.000Z,99.90
2019-05-12T01:55:03.638Z,99.90
2019-05-12T01:57:34.269Z,99.90
2019-05-12T02:00:08.686Z,99.90
2019-05-12T02:02:39.329Z,99.90
2019-05-12T02:05:11.494Z,99.90
2019-05-12T02:08:00.909Z,99.90
2019-05-12T02:10:32.290Z,99.90
2019-05-12T02:13:02.939Z,99.90
2019-05-12T02:15:33.544Z,99.90
2019-05-12T02:18:03.980Z,99.90
2019-05-12T02:20:34.594Z,99.90
2019-05-12T02:23:05.159Z,99.90
2019-05-12T02:25:37.833Z,99.90
2019-05-12T02:28:09.210Z,99.90
2019-05-12T02:30:41.820Z,99.90
2019-05-12T02:33:15.661Z,99.90
2019-05-12T02:35:44.566Z,99.90
2019-05-12T02:38:15.023Z,99.90
2019-05-12T02:40:45.594Z,99.90
2019-05-12T02:43:16.096Z,99.90
2019-05-12T02:45:46.877Z,99.90
2019-05-12T02:48:17.300Z,99.90
2019-05-12T02:50:48.137Z,99.90
2019-05-12T02:53:18.773Z,99.90
2019-05-12T02:55:54.205Z,99.90
2019-05-12T02:58:25.860Z,99.90
2019-05-12T03:00:58.365Z,99.90
2019-05-12T03:03:34.992Z,99.90
2019-05-12T03:06:05.438Z,99.90
2019-05-12T03:08:37.824Z,99.90
2019-05-12T03:11:08.507Z,99.90
2019-05-12T03:13:39.054Z,99.90
2019-05-12T03:16:09.534Z,99.90
2019-05-12T03:18:39.984Z,99.90
2019-05-12T03:21:10.939Z,99.90
2019-05-12T03:23:44.438Z,99.90
2019-05-12T03:26:15.440Z,99.90
2019-05-12T03:28:46.173Z,99.90
2019-05-12T03:31:23.190Z,99.90
2019-05-12T03:33:52.736Z,99.90
2019-05-12T03:36:21.387Z,99.90
2019-05-12T03:38:54.967Z,99.90
2019-05-12T03:41:25.231Z,99.90
2019-05-12T03:43:55.944Z,99.90
2019-05-12T03:46:26.389Z,99.90
2019-05-12T03:48:56.925Z,99.90
2019-05-12T03:51:27.666Z,99.90
2019-05-12T03:53:58.374Z,99.90
2019-05-12T03:56:29.232Z,99.90
2019-05-12T03:58:59.789Z,99.90
2019-05-12T04:01:30.998Z,99.90
2019-05-12T04:04:04.916Z,99.90
2019-05-12T04:06:34.612Z,99.90
2019-05-12T04:09:08.155Z,99.90
2019-05-12T04:11:38.864Z,99.90
2019-05-12T04:14:09.412Z,99.90
2019-05-12T04:16:40.010Z,99.90
2019-05-12T04:19:10.544Z,99.90
2019-05-12T04:21:44.633Z,99.90
2019-05-12T04:24:14.514Z,99.90
2019-05-12T04:26:45.225Z,99.90
2019-05-12T04:29:15.837Z,99.90
2019-05-12T04:31:46.327Z,99.90
2019-05-12T04:34:19.231Z,99.90
2019-05-12T04:36:49.274Z,99.90
2019-05-12T04:39:19.786Z,99.90
2019-05-12T04:41:50.315Z,99.90
2019-05-12T04:44:20.890Z,99.90
2019-05-12T04:46:51.442Z,99.90
2019-05-12T04:49:24.962Z,99.90
2019-05-12T04:51:55.409Z,99.90
2019-05-12T04:54:25.908Z,99.90
2019-05-12T04:56:57.700Z,99.90
2019-05-12T04:59:28.324Z,99.90
2019-05-12T05:01:58.964Z,99.90
2019-05-12T05:04:29.470Z,99.90
2019-05-12T05:07:00.020Z,99.90
2019-05-12T05:09:30.505Z,99.90
2019-05-12T05:12:04.409Z,99.90
2019-05-12T05:14:34.097Z,99.90
2019-05-12T05:17:05.841Z,99.90
2019-05-12T05:19:36.610Z,99.90
2019-05-12T05:22:07.279Z,99.90
2019-05-12T05:24:37.858Z,99.90
2019-05-12T05:27:08.547Z,99.90
2019-05-12T05:29:39.108Z,99.90
2019-05-12T05:32:09.658Z,99.90
2019-05-12T05:34:40.231Z,99.90
2019-05-12T05:37:10.728Z,99.90
2019-05-12T05:39:47.613Z,99.90
2019-05-12T05:42:13.658Z,99.90
2019-05-12T05:44:44.477Z,99.90
2019-05-12T05:47:14.937Z,99.90
2019-05-12T05:49:45.345Z,99.90
2019-05-12T05:52:15.852Z,99.90
2019-05-12T05:54:46.340Z,99.90
2019-05-12T05:57:19.954Z,99.90
2019-05-12T05:59:49.000Z,99.90
2019-05-12T06:02:23.194Z,99.90
2019-05-12T06:04:54.080Z,99.90
2019-05-12T06:07:34.950Z,99.90
2019-05-12T06:09:57.673Z,99.90
2019-05-12T06:12:28.539Z,99.90
2019-05-12T06:14:59.879Z,99.90
2019-05-12T06:17:31.142Z,99.90
2019-05-12T06:20:04.209Z,99.90
2019-05-12T06:22:34.428Z,99.90
2019-05-12T06:25:05.303Z,99.90
2019-05-12T06:27:37.168Z,99.90
2019-05-12T06:30:08.633Z,99.90
2019-05-12T06:32:41.209Z,99.90
2019-05-12T06:35:11.653Z,99.90
2019-05-12T06:37:44.363Z,99.90
2019-05-12T06:40:14.679Z,99.90
2019-05-12T06:42:48.401Z,99.90
2019-05-12T06:45:17.589Z,99.90
2019-05-12T06:47:49.745Z,99.90
2019-05-12T06:50:20.355Z,99.90
2019-05-12T06:52:52.763Z,99.90
2019-05-12T06:55:23.846Z,99.90
2019-05-12T06:57:54.455Z,99.90
2019-05-12T07:00:30.636Z,99.90
2019-05-12T07:02:57.600Z,99.90
2019-05-12T07:05:32.892Z,99.90
2019-05-12T07:08:00.513Z,99.90
2019-05-12T07:10:39.428Z,99.90
2019-05-12T07:13:05.659Z,99.90
2019-05-12T07:15:40.394Z,99.80
2019-05-12T07:18:13.710Z,99.30
2019-05-12T07:20:44.149Z,99.90
2019-05-12T07:23:19.754Z,99.90
2019-05-12T07:25:46.977Z,98.30
2019-05-12T07:28:18.490Z,98.70
2019-05-12T07:30:49.577Z,99.40
2019-05-12T07:33:23.226Z,97.60
2019-05-12T07:36:00.991Z,97.00
2019-05-12T07:38:29.193Z,96.90
2019-05-12T07:41:00.634Z,96.10
2019-05-12T07:43:33.906Z,95.30
2019-05-12T07:46:07.270Z,95.40
2019-05-12T07:48:40.351Z,95.30
2019-05-12T07:51:13.644Z,95.00
2019-05-12T07:53:46.926Z,95.10
2019-05-12T07:56:19.553Z,94.00
2019-05-12T07:58:54.064Z,94.80
2019-05-12T08:01:23.483Z,93.80
2019-05-12T08:03:59.340Z,95.50
2019-05-12T08:06:25.953Z,95.00
2019-05-12T08:08:58.975Z,92.90
2019-05-12T08:11:36.626Z,94.70
2019-05-12T08:14:03.606Z,93.90
2019-05-12T08:16:36.893Z,94.60
2019-05-12T08:19:08.527Z,92.00
2019-05-12T08:21:43.684Z,91.40
2019-05-12T08:24:14.176Z,92.20
2019-05-12T08:26:44.179Z,91.70
2019-05-12T08:29:16.978Z,90.30
2019-05-12T08:31:47.786Z,91.30
2019-05-12T08:34:19.686Z,92.80
2019-05-12T08:36:53.425Z,91.90
2019-05-12T08:39:25.941Z,90.00
2019-05-12T08:41:56.353Z,90.10
2019-05-12T08:44:33.828Z,88.90
2019-05-12T08:46:59.333Z,89.80
2019-05-12T08:49:34.125Z,85.30
2019-05-12T08:52:03.842Z,81.70
2019-05-12T08:54:39.558Z,81.50
2019-05-12T08:57:07.204Z,82.80
2019-05-12T08:59:38.065Z,79.70
2019-05-12T09:02:10.731Z,78.40
2019-05-12T09:04:45.318Z,76.50
2019-05-12T09:07:14.438Z,70.90
2019-05-12T09:09:45.210Z,73.30
2019-05-12T09:12:16.008Z,71.80
2019-05-12T09:14:46.869Z,72.10
2019-05-12T09:17:17.614Z,74.30
2019-05-12T09:19:48.323Z,69.20
2019-05-12T09:22:21.007Z,74.30
2019-05-12T09:24:53.362Z,77.40
2019-05-12T09:27:24.151Z,74.70
2019-05-12T09:29:59.044Z,76.60
2019-05-12T09:32:28.641Z,79.60
2019-05-12T09:34:59.479Z,74.80
2019-05-12T09:37:30.817Z,73.50
2019-05-12T09:40:04.590Z,71.10
2019-05-12T09:42:35.422Z,73.20
2019-05-12T09:45:10.389Z,76.50
2019-05-12T09:47:38.731Z,74.70
2019-05-12T09:50:15.287Z,71.80
2019-05-12T09:52:44.032Z,73.20
2019-05-12T09:55:15.025Z,70.20
2019-05-12T09:57:46.013Z,67.10
2019-05-12T10:00:17.462Z,71.00
2019-05-12T10:02:51.185Z,70.10
2019-05-12T10:05:20.904Z,67.90
2019-05-12T10:07:53.531Z,64.40
2019-05-12T10:10:24.325Z,64.80
2019-05-12T10:12:55.220Z,63.00
2019-05-12T10:15:28.693Z,65.10
2019-05-12T10:18:00.143Z,69.50
2019-05-12T10:20:35.302Z,66.70
2019-05-12T10:23:04.579Z,55.60
2019-05-12T10:25:35.883Z,54.40
2019-05-12T10:28:11.568Z,52.80
2019-05-12T10:30:39.171Z,47.30
2019-05-12T10:33:10.182Z,47.50
2019-05-12T10:35:41.048Z,48.00
2019-05-12T10:38:13.777Z,46.60
2019-05-12T10:40:47.916Z,48.60
2019-05-12T10:43:17.460Z,46.30
2019-05-12T10:45:48.199Z,46.30
2019-05-12T10:48:19.226Z,46.20
2019-05-12T10:50:50.170Z,47.20
2019-05-12T10:53:20.932Z,46.10
2019-05-12T10:55:51.565Z,46.40
2019-05-12T10:58:24.315Z,46.60
2019-05-12T11:00:58.855Z,46.10
2019-05-12T11:03:28.308Z,44.60
2019-05-12T11:06:02.378Z,48.30
2019-05-12T11:08:33.271Z,46.40
2019-05-12T11:11:04.295Z,46.20
2019-05-12T11:13:35.304Z,44.80
2019-05-12T11:16:06.713Z,47.90
2019-05-12T11:18:37.914Z,46.60
2019-05-12T11:21:08.929Z,46.30
2019-05-12T11:23:39.863Z,47.70
2019-05-12T11:26:10.609Z,45.50
2019-05-12T11:28:41.427Z,45.10
2019-05-12T11:31:13.628Z,43.40
2019-05-12T11:33:44.663Z,42.50
2019-05-12T11:36:15.690Z,44.50
2019-05-12T11:38:46.588Z,40.50
2019-05-12T11:41:20.238Z,40.30
2019-05-12T11:43:50.521Z,41.50
2019-05-12T11:46:23.608Z,42.60
2019-05-12T11:48:54.008Z,43.50
2019-05-12T11:51:29.174Z,45.00
2019-05-12T11:53:58.327Z,44.40
2019-05-12T11:56:29.038Z,43.30
2019-05-12T11:59:00.121Z,42.90
2019-05-12T12:01:31.142Z,43.20
2019-05-12T12:04:03.741Z,44.80
2019-05-12T12:06:34.503Z,42.40
2019-05-12T12:09:09.218Z,43.90
2019-05-12T12:11:40.091Z,39.30
2019-05-12T12:14:10.863Z,37.80
2019-05-12T12:16:49.819Z,35.70
2019-05-12T12:19:14.010Z,33.60
2019-05-12T12:21:49.935Z,33.70
2019-05-12T12:24:21.249Z,33.80
2019-05-12T12:26:50.816Z,34.60
2019-05-12T12:29:23.960Z,33.80
2019-05-12T12:31:56.060Z,33.10
2019-05-12T12:34:30.305Z,32.60
2019-05-12T12:36:59.330Z,34.70
2019-05-12T12:39:30.176Z,35.60
2019-05-12T12:42:01.001Z,35.60
2019-05-12T12:44:33.965Z,36.80
2019-05-12T12:47:04.188Z,37.20
2019-05-12T12:49:34.793Z,37.90
2019-05-12T12:52:05.744Z,40.40
2019-05-12T12:54:36.588Z,42.30
2019-05-12T12:57:09.865Z,42.60
2019-05-12T12:59:45.463Z,43.80
2019-05-12T13:02:14.226Z,43.70
2019-05-12T13:04:50.164Z,44.90
2019-05-12T13:07:18.784Z,43.80
2019-05-12T13:09:55.008Z,43.30
2019-05-12T13:12:22.280Z,42.90
2019-05-12T13:14:53.319Z,43.90
2019-05-12T13:17:29.045Z,41.50
2019-05-12T13:19:58.753Z,38.80
2019-05-12T13:22:29.793Z,38.00
2019-05-12T13:25:06.502Z,36.50
2019-05-12T13:27:36.723Z,35.30
2019-05-12T13:30:06.237Z,34.80
2019-05-12T13:32:38.010Z,36.00
2019-05-12T13:35:09.679Z,33.60
2019-05-12T13:37:43.280Z,34.00
2019-05-12T13:40:15.040Z,36.80
2019-05-12T13:42:45.905Z,36.60
2019-05-12T13:45:17.151Z,38.90
2019-05-12T13:47:48.086Z,38.90
2019-05-12T13:50:26.339Z,38.20
2019-05-12T13:52:54.039Z,38.40
2019-05-12T13:55:24.141Z,36.00
2019-05-12T13:57:57.739Z,34.50
2019-05-12T14:00:27.231Z,36.60
2019-05-12T14:03:04.749Z,35.50
2019-05-12T14:05:30.626Z,37.90
2019-05-12T14:08:03.734Z,39.40
2019-05-12T14:10:37.407Z,39.40
2019-05-12T14:13:07.569Z,42.40
2019-05-12T14:15:38.780Z,43.60
2019-05-12T14:18:10.488Z,43.80
2019-05-12T14:20:44.894Z,44.60
2019-05-12T14:23:15.240Z,45.00
2019-05-12T14:25:46.258Z,45.60
2019-05-12T14:28:17.159Z,47.50
2019-05-12T14:30:51.588Z,47.20
2019-05-12T14:33:20.781Z,47.70
2019-05-12T14:35:53.784Z,48.70
2019-05-12T14:38:29.661Z,50.80
2019-05-12T14:41:01.310Z,52.20
2019-05-12T14:43:29.632Z,52.00
2019-05-12T14:46:06.362Z,53.70
2019-05-12T14:48:33.557Z,54.40
2019-05-12T14:51:04.596Z,54.60
2019-05-12T14:53:38.234Z,55.50
2019-05-12T14:56:08.050Z,56.70
2019-05-12T14:58:38.958Z,59.30
2019-05-12T15:01:09.583Z,59.20
2019-05-12T15:03:42.249Z,62.10
2019-05-12T15:06:14.154Z,62.60
2019-05-12T15:08:45.159Z,64.00
2019-05-12T15:11:15.912Z,63.60
2019-05-12T15:13:47.082Z,80.50
2019-05-12T15:16:17.771Z,88.80
2019-05-12T15:18:51.168Z,94.20
2019-05-12T15:21:27.398Z,99.90
2019-05-12T15:23:54.783Z,99.90
2019-05-12T15:26:25.505Z,99.90
2019-05-12T15:28:56.152Z,99.90
2019-05-12T15:31:26.883Z,99.90
2019-05-12T15:33:57.832Z,99.90
2019-05-12T15:36:28.782Z,99.90
2019-05-12T15:38:59.451Z,99.90
2019-05-12T15:41:30.149Z,99.90
2019-05-12T15:44:03.423Z,99.90
2019-05-12T15:46:41.288Z,99.90
2019-05-12T15:49:08.768Z,99.90
2019-05-12T15:51:51.237Z,99.90
2019-05-12T15:54:14.523Z,99.90
2019-05-12T15:56:44.672Z,99.90
2019-05-12T15:59:17.357Z,99.90
2019-05-12T16:01:47.987Z,99.90
2019-05-12T16:04:18.992Z,99.90
2019-05-12T16:06:55.404Z,99.90
2019-05-12T16:09:23.811Z,99.90
2019-05-12T16:11:54.509Z,99.90
2019-05-12T16:14:30.392Z,99.90
2019-05-12T16:16:59.654Z,99.90
2019-05-12T16:19:30.406Z,99.90
2019-05-12T16:22:03.483Z,99.90
2019-05-12T16:24:34.162Z,99.90
2019-05-12T16:27:05.669Z,99.90
2019-05-12T16:29:39.042Z,99.90
2019-05-12T16:32:22.364Z,99.90
2019-05-12T16:34:44.831Z,99.90
2019-05-12T16:37:14.241Z,99.90
2019-05-12T16:39:47.528Z,99.90
2019-05-12T16:42:17.397Z,99.90
2019-05-12T16:44:56.219Z,99.90
2019-05-12T16:47:29.081Z,99.90
2019-05-12T16:49:57.108Z,99.90
2019-05-12T16:52:33.661Z,99.90
2019-05-12T16:55:00.742Z,99.90
2019-05-12T16:57:33.727Z,99.90
2019-05-12T17:00:07.016Z,99.90
2019-05-12T17:02:41.871Z,99.90
2019-05-12T17:05:15.687Z,99.90
2019-05-12T17:07:44.146Z,99.90
2019-05-12T17:10:16.837Z,99.90
2019-05-12T17:12:49.928Z,99.90
2019-05-12T17:15:23.586Z,99.90
2019-05-12T17:18:01.188Z,99.90
2019-05-12T17:20:33.352Z,99.90
2019-05-12T17:23:09.698Z,99.90
2019-05-12T17:25:47.515Z,99.90
2019-05-12T17:28:24.107Z,99.90
2019-05-12T17:30:59.037Z,99.90
2019-05-12T17:33:33.904Z,99.90
2019-05-12T17:36:12.454Z,99.90
2019-05-12T17:38:55.997Z,99.90
2019-05-12T17:41:31.576Z,99.90
2019-05-12T17:44:06.943Z,99.90
2019-05-12T17:46:45.027Z,99.90
2019-05-12T17:49:29.418Z,99.90
2019-05-12T17:52:12.288Z,99.90
2019-05-12T17:54:43.237Z,99.90
2019-05-12T17:57:23.152Z,99.90
2019-05-12T17:59:59.784Z,99.90
2019-05-12T18:02:34.490Z,99.90
2019-05-12T18:05:16.037Z,99.90
2019-05-12T18:07:50.902Z,99.90
2019-05-12T18:10:26.819Z,99.90
2019-05-12T18:12:59.885Z,99.90
2019-05-12T18:15:37.912Z,99.90
2019-05-12T18:18:06.316Z,99.90
2019-05-12T18:20:41.727Z,99.90
2019-05-12T18:23:14.011Z,99.90
2019-05-12T18:25:47.891Z,99.90
2019-05-12T18:28:27.670Z,99.90
2019-05-12T18:30:59.049Z,99.90
2019-05-12T18:33:37.156Z,99.90
2019-05-12T18:36:07.978Z,99.90
2019-05-12T18:38:40.591Z,99.90
2019-05-12T18:41:13.906Z,99.90
2019-05-12T18:43:46.450Z,99.90
2019-05-12T18:46:18.109Z,99.90
2019-05-12T18:48:54.305Z,99.90
2019-05-12T18:51:28.964Z,99.90
2019-05-12T18:54:10.231Z,99.90
2019-05-12T18:56:39.063Z,99.90
2019-05-12T18:59:15.583Z,99.90
2019-05-12T19:01:45.077Z,99.90
2019-05-12T19:04:18.660Z,99.90
2019-05-12T19:06:54.187Z,99.90
2019-05-12T19:09:27.155Z,99.90
2019-05-12T19:12:03.390Z,99.90
2019-05-12T19:14:40.256Z,99.90
2019-05-12T19:17:13.962Z,99.90
2019-05-12T19:19:46.199Z,99.90
2019-05-12T19:22:24.205Z,99.90
2019-05-12T19:25:00.470Z,99.90
2019-05-12T19:27:34.985Z,99.90
2019-05-12T19:30:07.710Z,99.90
2019-05-12T19:32:44.963Z,99.90
2019-05-12T19:35:20.486Z,99.90
2019-05-12T19:37:53.742Z,99.90
2019-05-12T19:40:26.906Z,99.90
2019-05-12T19:43:03.391Z,99.90
2019-05-12T19:45:33.824Z,99.90
2019-05-12T19:48:08.107Z,99.90
2019-05-12T19:50:44.571Z,99.90
2019-05-12T19:53:15.907Z,99.90
2019-05-12T19:55:47.717Z,99.90
2019-05-12T19:58:18.981Z,99.90
2019-05-12T20:00:50.059Z,99.90
2019-05-12T20:03:20.649Z,99.90
2019-05-12T20:05:53.668Z,99.90
2019-05-12T20:08:23.914Z,99.90
2019-05-12T20:10:54.702Z,99.90
2019-05-12T20:13:29.662Z,99.90
2019-05-12T20:15:59.836Z,99.90
2019-05-12T20:18:34.338Z,99.90
2019-05-12T20:21:04.508Z,99.90
2019-05-12T20:23:35.260Z,99.90
2019-05-12T20:26:06.262Z,99.90
2019-05-12T20:28:42.114Z,99.90
2019-05-12T20:31:09.343Z,99.90
2019-05-12T20:33:40.108Z,99.90
2019-05-12T20:36:10.941Z,99.90
2019-05-12T20:38:44.215Z,99.90
2019-05-12T20:41:21.772Z,99.90
2019-05-12T20:43:47.105Z,99.90
2019-05-12T20:46:21.771Z,99.90
2019-05-12T20:48:53.650Z,99.90
2019-05-12T20:51:26.399Z,99.90
2019-05-12T20:53:56.994Z,99.90
2019-05-12T20:56:27.664Z,99.90
2019-05-12T20:59:22.137Z,99.90
2019-05-12T21:01:48.890Z,99.90
2019-05-12T21:04:22.021Z,99.90
2019-05-12T21:06:53.975Z,99.90
2019-05-12T21:09:23.956Z,99.90
2019-05-12T21:11:54.879Z,99.90
2019-05-12T21:14:25.439Z,99.90
2019-05-12T21:16:56.035Z,99.90
2019-05-12T21:19:29.361Z,99.90
2019-05-12T21:21:59.898Z,99.90
2019-05-12T21:24:37.042Z,99.90
2019-05-12T21:27:03.887Z,99.90
2019-05-12T21:29:34.416Z,99.90
2019-05-12T21:32:12.285Z,99.90
2019-05-12T21:34:37.046Z,99.90
2019-05-12T21:37:07.747Z,99.90
2019-05-12T21:39:40.594Z,99.90
2019-05-12T21:42:10.526Z,99.90
2019-05-12T21:44:46.257Z,99.90
2019-05-12T21:47:13.959Z,99.90
2019-05-12T21:49:48.471Z,99.90
2019-05-12T21:52:16.766Z,99.90
2019-05-12T21:54:48.190Z,99.90
2019-05-12T21:57:31.252Z,99.90
2019-05-12T22:00:04.615Z,99.90
2019-05-12T22:02:35.557Z,99.90
2019-05-12T22:05:06.215Z,99.90
2019-05-12T22:07:39.783Z,99.90
2019-05-12T22:10:09.271Z,99.90
2019-05-12T22:12:39.873Z,99.90
2019-05-12T22:15:21.353Z,99.90
2019-05-12T22:18:11.440Z,99.90
2019-05-12T22:20:44.362Z,99.90
2019-05-12T22:23:15.102Z,99.90
2019-05-12T22:25:49.262Z,99.90
2019-05-12T22:28:18.079Z,99.90
2019-05-12T22:30:48.674Z,99.90
2019-05-12T22:33:19.256Z,99.90
2019-05-12T22:36:01.941Z,99.90
2019-05-12T22:38:21.997Z,99.90
2019-05-12T22:40:57.752Z,99.90
2019-05-12T22:43:24.955Z,99.90
2019-05-12T22:45:55.450Z,99.90
2019-05-12T22:48:29.636Z,99.90
2019-05-12T22:50:58.940Z,99.90
2019-05-12T22:53:30.286Z,99.90
2019-05-12T22:56:03.065Z,99.90
2019-05-12T22:58:33.934Z,99.90
2019-05-12T23:01:05.410Z,99.90
2019-05-12T23:03:36.220Z,99.90
2019-05-12T23:06:20.245Z,99.90
2019-05-12T23:08:47.155Z,99.90
2019-05-12T23:11:14.341Z,99.90
2019-05-12T23:13:43.750Z,99.90
2019-05-12T23:16:14.320Z,99.90
2019-05-12T23:18:44.873Z,99.90
2019-05-12T23:21:17.406Z,99.90
2019-05-12T23:23:49.853Z,99.90
2019-05-12T23:26:24.548Z,99.90
2019-05-12T23:28:55.238Z,99.90
2019-05-12T23:31:29.996Z,99.90
2019-05-12T23:33:58.014Z,99.90
2019-05-12T23:36:35.571Z,99.90
2019-05-12T23:39:02.081Z,99.90
2019-05-12T23:41:34.372Z,99.90
2019-05-12T23:44:05.180Z,99.90
2019-05-12T23:46:35.655Z,99.90
2019-05-12T23:49:06.208Z,99.90
2019-05-12T23:51:36.751Z,99.90
2019-05-12T23:54:07.141Z,99.90
2019-05-12T23:56:38.098Z,99.90
2019-05-12T23:59:08.552Z,99.90
